sensor_id;sensor_type;location;lat;lon;timestamp;pressure;altitude;pressure_sealevel;temperature;humidity
81822;BME280;71257;52.192;5.654;2023-08-06T00:00:39;100356.09;;;13.74;97.28
81822;BME280;71257;52.192;5.654;2023-08-06T00:03:05;100358.63;;;13.81;97.05
81822;BME280;71257;52.192;5.654;2023-08-06T00:05:31;100358.38;;;13.82;96.65
81822;BME280;71257;52.192;5.654;2023-08-06T00:07:56;100358.63;;;13.81;96.85
81822;BME280;71257;52.192;5.654;2023-08-06T00:10:21;100353.72;;;13.83;96.41
81822;BME280;71257;52.192;5.654;2023-08-06T00:12:47;100352.34;;;13.80;96.95
81822;BME280;71257;52.192;5.654;2023-08-06T00:15:13;100356.84;;;13.70;96.95
81822;BME280;71257;52.192;5.654;2023-08-06T00:17:39;100352.78;;;13.72;97.11
81822;BME280;71257;52.192;5.654;2023-08-06T00:20:05;100348.66;;;13.70;96.83
81822;BME280;71257;52.192;5.654;2023-08-06T00:22:32;100346.47;;;13.72;96.75
81822;BME280;71257;52.192;5.654;2023-08-06T00:24:58;100344.56;;;13.72;96.97
81822;BME280;71257;52.192;5.654;2023-08-06T00:27:23;100340.19;;;13.71;97.05
81822;BME280;71257;52.192;5.654;2023-08-06T00:29:49;100347.00;;;13.69;96.87
81822;BME280;71257;52.192;5.654;2023-08-06T00:32:14;100339.75;;;13.58;97.06
81822;BME280;71257;52.192;5.654;2023-08-06T00:34:40;100346.88;;;13.59;97.28
81822;BME280;71257;52.192;5.654;2023-08-06T00:37:05;100345.97;;;13.53;97.57
81822;BME280;71257;52.192;5.654;2023-08-06T00:39:31;100347.81;;;13.47;97.61
81822;BME280;71257;52.192;5.654;2023-08-06T00:41:56;100346.50;;;13.50;97.25
81822;BME280;71257;52.192;5.654;2023-08-06T00:44:23;100343.69;;;13.45;97.40
81822;BME280;71257;52.192;5.654;2023-08-06T00:46:48;100339.53;;;13.42;97.69
81822;BME280;71257;52.192;5.654;2023-08-06T00:49:14;100342.03;;;13.44;97.44
81822;BME280;71257;52.192;5.654;2023-08-06T00:51:39;100341.53;;;13.47;97.47
81822;BME280;71257;52.192;5.654;2023-08-06T00:54:05;100342.28;;;13.42;97.50
81822;BME280;71257;52.192;5.654;2023-08-06T00:56:31;100346.88;;;13.37;97.65
81822;BME280;71257;52.192;5.654;2023-08-06T00:58:58;100349.41;;;13.43;97.48
81822;BME280;71257;52.192;5.654;2023-08-06T01:01:23;100345.28;;;13.41;97.46
81822;BME280;71257;52.192;5.654;2023-08-06T01:03:49;100353.47;;;13.41;97.61
81822;BME280;71257;52.192;5.654;2023-08-06T01:06:19;100351.25;;;13.38;97.10
81822;BME280;71257;52.192;5.654;2023-08-06T01:08:55;100346.53;;;13.33;97.62
81822;BME280;71257;52.192;5.654;2023-08-06T01:11:59;100347.75;;;13.42;97.27
81822;BME280;71257;52.192;5.654;2023-08-06T01:14:32;100347.44;;;13.39;97.38
81822;BME280;71257;52.192;5.654;2023-08-06T01:16:59;100346.34;;;13.40;97.52
81822;BME280;71257;52.192;5.654;2023-08-06T01:19:25;100345.84;;;13.43;97.48
81822;BME280;71257;52.192;5.654;2023-08-06T01:21:50;100348.41;;;13.49;97.15
81822;BME280;71257;52.192;5.654;2023-08-06T01:24:16;100347.63;;;13.54;96.89
81822;BME280;71257;52.192;5.654;2023-08-06T01:26:47;100343.56;;;13.57;97.13
81822;BME280;71257;52.192;5.654;2023-08-06T01:29:19;100349.34;;;13.60;96.99
81822;BME280;71257;52.192;5.654;2023-08-06T01:31:48;100343.25;;;13.53;97.06
81822;BME280;71257;52.192;5.654;2023-08-06T01:34:17;100351.19;;;13.54;97.00
81822;BME280;71257;52.192;5.654;2023-08-06T01:36:45;100352.34;;;13.59;97.27
81822;BME280;71257;52.192;5.654;2023-08-06T01:39:10;100341.41;;;13.59;97.27
81822;BME280;71257;52.192;5.654;2023-08-06T01:41:36;100342.22;;;13.59;97.16
81822;BME280;71257;52.192;5.654;2023-08-06T01:44:01;100337.91;;;13.63;96.75
81822;BME280;71257;52.192;5.654;2023-08-06T01:46:27;100343.69;;;13.67;96.98
81822;BME280;71257;52.192;5.654;2023-08-06T01:48:52;100340.88;;;13.62;96.78
81822;BME280;71257;52.192;5.654;2023-08-06T01:51:17;100344.19;;;13.64;97.21
81822;BME280;71257;52.192;5.654;2023-08-06T01:53:43;100348.06;;;13.68;97.08
81822;BME280;71257;52.192;5.654;2023-08-06T01:56:08;100349.41;;;13.65;96.95
81822;BME280;71257;52.192;5.654;2023-08-06T01:58:33;100348.53;;;13.60;97.11
81822;BME280;71257;52.192;5.654;2023-08-06T02:00:59;100343.94;;;13.65;97.24
81822;BME280;71257;52.192;5.654;2023-08-06T02:03:25;100347.44;;;13.61;97.12
81822;BME280;71257;52.192;5.654;2023-08-06T02:05:51;100354.00;;;13.60;97.58
81822;BME280;71257;52.192;5.654;2023-08-06T02:08:16;100343.81;;;13.55;97.58
81822;BME280;71257;52.192;5.654;2023-08-06T02:10:41;100349.84;;;13.57;97.90
81822;BME280;71257;52.192;5.654;2023-08-06T02:13:07;100349.03;;;13.57;97.40
81822;BME280;71257;52.192;5.654;2023-08-06T02:15:32;100348.13;;;13.51;97.47
81822;BME280;71257;52.192;5.654;2023-08-06T02:17:57;100343.31;;;13.58;97.96
81822;BME280;71257;52.192;5.654;2023-08-06T02:20:23;100342.41;;;13.52;97.95
81822;BME280;71257;52.192;5.654;2023-08-06T02:22:48;100342.16;;;13.54;98.33
81822;BME280;71257;52.192;5.654;2023-08-06T02:25:14;100335.59;;;13.55;97.28
81822;BME280;71257;52.192;5.654;2023-08-06T02:27:39;100341.91;;;13.55;97.93
81822;BME280;71257;52.192;5.654;2023-08-06T02:30:05;100340.50;;;13.53;98.16
81822;BME280;71257;52.192;5.654;2023-08-06T02:32:31;100335.28;;;13.51;98.04
81822;BME280;71257;52.192;5.654;2023-08-06T02:34:57;100338.28;;;13.50;97.96
81822;BME280;71257;52.192;5.654;2023-08-06T02:37:23;100330.84;;;13.45;97.89
81822;BME280;71257;52.192;5.654;2023-08-06T02:39:48;100339.16;;;13.55;98.29
81822;BME280;71257;52.192;5.654;2023-08-06T02:42:13;100336.13;;;13.52;98.00
81822;BME280;71257;52.192;5.654;2023-08-06T02:44:39;100328.16;;;13.50;98.16
81822;BME280;71257;52.192;5.654;2023-08-06T02:47:04;100330.84;;;13.45;98.13
81822;BME280;71257;52.192;5.654;2023-08-06T02:49:30;100319.63;;;13.47;97.99
81822;BME280;71257;52.192;5.654;2023-08-06T02:51:55;100322.75;;;13.55;98.21
81822;BME280;71257;52.192;5.654;2023-08-06T02:54:23;100315.00;;;13.47;97.83
81822;BME280;71257;52.192;5.654;2023-08-06T02:56:49;100320.16;;;13.44;98.24
81822;BME280;71257;52.192;5.654;2023-08-06T02:59:14;100318.88;;;13.51;97.96
81822;BME280;71257;52.192;5.654;2023-08-06T03:01:39;100320.97;;;13.44;97.80
81822;BME280;71257;52.192;5.654;2023-08-06T03:04:05;100314.34;;;13.40;97.81
81822;BME280;71257;52.192;5.654;2023-08-06T03:06:31;100309.97;;;13.39;98.66
81822;BME280;71257;52.192;5.654;2023-08-06T03:08:56;100315.50;;;13.44;98.56
81822;BME280;71257;52.192;5.654;2023-08-06T03:11:22;100315.44;;;13.39;98.60
81822;BME280;71257;52.192;5.654;2023-08-06T03:13:48;100315.44;;;13.39;98.57
81822;BME280;71257;52.192;5.654;2023-08-06T03:16:13;100307.53;;;13.43;98.43
81822;BME280;71257;52.192;5.654;2023-08-06T03:18:39;100306.72;;;13.42;98.44
81822;BME280;71257;52.192;5.654;2023-08-06T03:21:04;100313.22;;;13.36;98.44
81822;BME280;71257;52.192;5.654;2023-08-06T03:23:30;100309.91;;;13.34;98.36
81822;BME280;71257;52.192;5.654;2023-08-06T03:25:55;100315.06;;;13.31;98.70
81822;BME280;71257;52.192;5.654;2023-08-06T03:28:20;100304.69;;;13.33;98.75
81822;BME280;71257;52.192;5.654;2023-08-06T03:30:47;100311.31;;;13.37;98.63
81822;BME280;71257;52.192;5.654;2023-08-06T03:33:12;100294.50;;;13.28;98.79
81822;BME280;71257;52.192;5.654;2023-08-06T03:35:38;100301.38;;;13.31;98.49
81822;BME280;71257;52.192;5.654;2023-08-06T03:38:03;100306.59;;;13.32;98.81
81822;BME280;71257;52.192;5.654;2023-08-06T03:40:28;100304.88;;;13.26;99.04
81822;BME280;71257;52.192;5.654;2023-08-06T03:42:54;100308.44;;;13.27;98.77
81822;BME280;71257;52.192;5.654;2023-08-06T03:45:19;100308.44;;;13.27;98.91
81822;BME280;71257;52.192;5.654;2023-08-06T03:47:45;100312.00;;;13.27;98.85
81822;BME280;71257;52.192;5.654;2023-08-06T03:50:10;100307.03;;;13.24;99.10
81822;BME280;71257;52.192;5.654;2023-08-06T03:52:35;100301.06;;;13.27;99.00
81822;BME280;71257;52.192;5.654;2023-08-06T03:55:01;100306.53;;;13.27;98.89
81822;BME280;71257;52.192;5.654;2023-08-06T03:57:26;100298.81;;;13.24;98.82
81822;BME280;71257;52.192;5.654;2023-08-06T03:59:52;100309.44;;;13.20;98.98
81822;BME280;71257;52.192;5.654;2023-08-06T04:02:17;100307.78;;;13.19;99.15
81822;BME280;71257;52.192;5.654;2023-08-06T04:04:43;100305.06;;;13.19;99.02
81822;BME280;71257;52.192;5.654;2023-08-06T04:07:08;100309.94;;;13.17;99.20
81822;BME280;71257;52.192;5.654;2023-08-06T04:09:34;100307.78;;;13.19;99.37
81822;BME280;71257;52.192;5.654;2023-08-06T04:11:59;100304.47;;;13.17;99.35
81822;BME280;71257;52.192;5.654;2023-08-06T04:14:26;100307.22;;;13.17;98.97
81822;BME280;71257;52.192;5.654;2023-08-06T04:16:52;100302.81;;;13.16;98.84
81822;BME280;71257;52.192;5.654;2023-08-06T04:19:18;100313.59;;;13.23;98.84
81822;BME280;71257;52.192;5.654;2023-08-06T04:21:44;100312.25;;;13.26;99.29
81822;BME280;71257;52.192;5.654;2023-08-06T04:24:09;100308.94;;;13.23;98.89
81822;BME280;71257;52.192;5.654;2023-08-06T04:26:34;100317.72;;;13.26;98.98
81822;BME280;71257;52.192;5.654;2023-08-06T04:29:00;100316.13;;;13.30;98.96
81822;BME280;71257;52.192;5.654;2023-08-06T04:31:25;100322.50;;;13.35;98.80
81822;BME280;71257;52.192;5.654;2023-08-06T04:33:51;100317.03;;;13.35;98.92
81822;BME280;71257;52.192;5.654;2023-08-06T04:36:16;100320.53;;;13.31;98.58
81822;BME280;71257;52.192;5.654;2023-08-06T04:38:41;100329.03;;;13.34;98.64
81822;BME280;71257;52.192;5.654;2023-08-06T04:41:10;100329.13;;;13.39;98.89
81822;BME280;71257;52.192;5.654;2023-08-06T04:43:36;100324.66;;;13.33;98.47
81822;BME280;71257;52.192;5.654;2023-08-06T04:46:01;100331.28;;;13.37;98.54
81822;BME280;71257;52.192;5.654;2023-08-06T04:48:26;100335.09;;;13.36;98.29
81822;BME280;71257;52.192;5.654;2023-08-06T04:50:52;100327.22;;;13.40;98.62
81822;BME280;71257;52.192;5.654;2023-08-06T04:53:17;100329.13;;;13.39;98.86
81822;BME280;71257;52.192;5.654;2023-08-06T04:55:43;100330.78;;;13.40;98.74
81822;BME280;71257;52.192;5.654;2023-08-06T04:58:09;100334.59;;;13.39;98.83
81822;BME280;71257;52.192;5.654;2023-08-06T05:00:35;100327.00;;;13.46;98.69
81822;BME280;71257;52.192;5.654;2023-08-06T05:03:00;100341.78;;;13.45;98.46
81822;BME280;71257;52.192;5.654;2023-08-06T05:05:27;100341.00;;;13.50;98.09
81822;BME280;71257;52.192;5.654;2023-08-06T05:07:55;100347.88;;;13.52;98.46
81822;BME280;71257;52.192;5.654;2023-08-06T05:10:21;100344.91;;;13.54;98.14
81822;BME280;71257;52.192;5.654;2023-08-06T05:12:49;100347.88;;;13.52;98.75
81822;BME280;71257;52.192;5.654;2023-08-06T05:15:14;100346.56;;;13.55;98.44
81822;BME280;71257;52.192;5.654;2023-08-06T05:17:39;100352.59;;;13.57;98.56
81822;BME280;71257;52.192;5.654;2023-08-06T05:20:05;100352.66;;;13.62;97.97
81822;BME280;71257;52.192;5.654;2023-08-06T05:22:31;100352.16;;;13.65;98.14
81822;BME280;71257;52.192;5.654;2023-08-06T05:24:56;100356.84;;;13.70;97.74
81822;BME280;71257;52.192;5.654;2023-08-06T05:27:21;100352.97;;;13.66;97.68
81822;BME280;71257;52.192;5.654;2023-08-06T05:29:48;100347.25;;;13.67;97.57
81822;BME280;71257;52.192;5.654;2023-08-06T05:32:13;100364.56;;;13.73;98.25
81822;BME280;71257;52.192;5.654;2023-08-06T05:34:38;100361.25;;;13.71;97.84
81822;BME280;71257;52.192;5.654;2023-08-06T05:37:04;100358.84;;;13.74;98.20
81822;BME280;71257;52.192;5.654;2023-08-06T05:39:32;100369.06;;;13.84;97.69
81822;BME280;71257;52.192;5.654;2023-08-06T05:41:58;100369.06;;;13.84;97.77
81822;BME280;71257;52.192;5.654;2023-08-06T05:44:23;100378.13;;;13.84;97.52
81822;BME280;71257;52.192;5.654;2023-08-06T05:46:49;100379.13;;;13.78;97.17
81822;BME280;71257;52.192;5.654;2023-08-06T05:49:15;100374.38;;;13.69;97.88
81822;BME280;71257;52.192;5.654;2023-08-06T05:51:41;100386.84;;;13.81;98.21
81822;BME280;71257;52.192;5.654;2023-08-06T05:54:06;100384.53;;;13.73;97.52
81822;BME280;71257;52.192;5.654;2023-08-06T05:56:32;100395.31;;;13.80;97.99
81822;BME280;71257;52.192;5.654;2023-08-06T05:58:57;100388.69;;;13.76;97.87
81822;BME280;71257;52.192;5.654;2023-08-06T06:01:22;100384.88;;;13.77;97.89
81822;BME280;71257;52.192;5.654;2023-08-06T06:03:48;100383.84;;;13.83;97.83
81822;BME280;71257;52.192;5.654;2023-08-06T06:06:13;100392.06;;;13.83;97.30
81822;BME280;71257;52.192;5.654;2023-08-06T06:08:39;100396.44;;;13.84;97.46
81822;BME280;71257;52.192;5.654;2023-08-06T06:11:04;100397.03;;;13.86;97.84
81822;BME280;71257;52.192;5.654;2023-08-06T06:13:29;100402.25;;;13.87;97.76
81822;BME280;71257;52.192;5.654;2023-08-06T06:15:55;100400.06;;;13.90;97.68
81822;BME280;71257;52.192;5.654;2023-08-06T06:18:21;100411.84;;;13.90;97.64
81822;BME280;71257;52.192;5.654;2023-08-06T06:20:47;100405.28;;;13.91;97.57
81822;BME280;71257;52.192;5.654;2023-08-06T06:23:12;100413.81;;;13.95;96.67
81822;BME280;71257;52.192;5.654;2023-08-06T06:25:42;100415.22;;;13.97;97.53
81822;BME280;71257;52.192;5.654;2023-08-06T06:28:08;100413.81;;;13.95;97.45
81822;BME280;71257;52.192;5.654;2023-08-06T06:30:34;100418.78;;;13.98;96.96
81822;BME280;71257;52.192;5.654;2023-08-06T06:33:00;100413.63;;;14.01;97.77
81822;BME280;71257;52.192;5.654;2023-08-06T06:35:25;100412.28;;;14.04;97.30
81822;BME280;71257;52.192;5.654;2023-08-06T06:37:50;100420.06;;;14.12;97.35
81822;BME280;71257;52.192;5.654;2023-08-06T06:40:16;100414.38;;;14.18;96.45
81822;BME280;71257;52.192;5.654;2023-08-06T06:42:42;100425.97;;;14.26;96.27
81822;BME280;71257;52.192;5.654;2023-08-06T06:45:08;100430.03;;;14.45;97.13
81822;BME280;71257;52.192;5.654;2023-08-06T06:47:33;100433.66;;;14.50;95.98
81822;BME280;71257;52.192;5.654;2023-08-06T06:49:59;100430.13;;;14.55;94.94
81822;BME280;71257;52.192;5.654;2023-08-06T06:52:24;100430.28;;;14.43;95.55
81822;BME280;71257;52.192;5.654;2023-08-06T06:54:49;100428.13;;;14.45;95.02
81822;BME280;71257;52.192;5.654;2023-08-06T06:57:15;100437.84;;;14.58;94.76
81822;BME280;71257;52.192;5.654;2023-08-06T06:59:40;100434.97;;;14.75;95.46
81822;BME280;71257;52.192;5.654;2023-08-06T07:02:05;100434.63;;;14.66;94.29
81822;BME280;71257;52.192;5.654;2023-08-06T07:04:31;100434.84;;;14.60;95.11
81822;BME280;71257;52.192;5.654;2023-08-06T07:06:56;100437.53;;;14.55;95.10
81822;BME280;71257;52.192;5.654;2023-08-06T07:09:21;100439.75;;;14.58;94.75
81822;BME280;71257;52.192;5.654;2023-08-06T07:11:47;100443.22;;;14.75;94.31
81822;BME280;71257;52.192;5.654;2023-08-06T07:14:12;100433.94;;;14.81;95.59
81822;BME280;71257;52.192;5.654;2023-08-06T07:16:39;100438.56;;;14.75;94.80
81822;BME280;71257;52.192;5.654;2023-08-06T07:19:05;100437.59;;;14.92;94.44
81822;BME280;71257;52.192;5.654;2023-08-06T07:21:31;100440.66;;;14.95;95.30
81822;BME280;71257;52.192;5.654;2023-08-06T07:23:56;100437.72;;;15.07;93.78
81822;BME280;71257;52.192;5.654;2023-08-06T07:26:22;100443.16;;;15.02;94.01
81822;BME280;71257;52.192;5.654;2023-08-06T07:28:47;100445.69;;;15.08;93.92
81822;BME280;71257;52.192;5.654;2023-08-06T07:31:13;100452.69;;;15.26;92.97
81822;BME280;71257;52.192;5.654;2023-08-06T07:33:38;100456.00;;;15.28;93.47
81822;BME280;71257;52.192;5.654;2023-08-06T07:36:12;100450.56;;;15.38;92.20
81822;BME280;71257;52.192;5.654;2023-08-06T07:38:37;100452.84;;;15.52;93.17
81822;BME280;71257;52.192;5.654;2023-08-06T07:41:03;100448.88;;;15.64;92.07
81822;BME280;71257;52.192;5.654;2023-08-06T07:43:29;100456.09;;;15.75;90.94
81822;BME280;71257;52.192;5.654;2023-08-06T07:45:58;100455.56;;;15.84;90.63
81822;BME280;71257;52.192;5.654;2023-08-06T07:48:23;100453.38;;;15.86;90.17
81822;BME280;71257;52.192;5.654;2023-08-06T07:50:52;100462.25;;;15.98;90.66
81822;BME280;71257;52.192;5.654;2023-08-06T07:53:22;100449.69;;;16.22;89.54
81822;BME280;71257;52.192;5.654;2023-08-06T07:55:51;100454.38;;;16.27;89.14
81822;BME280;71257;52.192;5.654;2023-08-06T07:58:18;100461.59;;;16.48;88.66
81822;BME280;71257;52.192;5.654;2023-08-06T08:00:43;100463.53;;;16.58;86.35
81822;BME280;71257;52.192;5.654;2023-08-06T08:03:11;100460.19;;;16.35;88.16
81822;BME280;71257;52.192;5.654;2023-08-06T08:05:38;100462.91;;;16.30;88.88
81822;BME280;71257;52.192;5.654;2023-08-06T08:08:04;100463.19;;;16.29;88.95
81822;BME280;71257;52.192;5.654;2023-08-06T08:10:29;100465.13;;;16.38;88.95
81822;BME280;71257;52.192;5.654;2023-08-06T08:12:55;100467.59;;;16.35;89.28
81822;BME280;71257;52.192;5.654;2023-08-06T08:15:21;100470.09;;;16.36;89.00
81822;BME280;71257;52.192;5.654;2023-08-06T08:17:46;100462.41;;;16.43;88.92
81822;BME280;71257;52.192;5.654;2023-08-06T08:20:13;100464.28;;;16.28;88.92
81822;BME280;71257;52.192;5.654;2023-08-06T08:22:38;100464.19;;;16.07;88.88
81822;BME280;71257;52.192;5.654;2023-08-06T08:25:04;100477.94;;;16.07;90.09
81822;BME280;71257;52.192;5.654;2023-08-06T08:27:30;100467.16;;;15.91;89.84
81822;BME280;71257;52.192;5.654;2023-08-06T08:29:56;100470.25;;;16.09;89.86
81822;BME280;71257;52.192;5.654;2023-08-06T08:32:21;100471.69;;;16.27;90.16
81822;BME280;71257;52.192;5.654;2023-08-06T08:34:47;100467.00;;;16.18;89.58
81822;BME280;71257;52.192;5.654;2023-08-06T08:37:13;100469.50;;;16.24;89.29
81822;BME280;71257;52.192;5.654;2023-08-06T08:39:38;100473.63;;;16.32;89.44
81822;BME280;71257;52.192;5.654;2023-08-06T08:42:04;100471.94;;;16.16;89.53
81822;BME280;71257;52.192;5.654;2023-08-06T08:44:32;100471.03;;;16.00;89.94
81822;BME280;71257;52.192;5.654;2023-08-06T08:46:59;100468.81;;;15.97;91.22
81822;BME280;71257;52.192;5.654;2023-08-06T08:49:26;100470.16;;;15.89;90.52
81822;BME280;71257;52.192;5.654;2023-08-06T08:51:52;100472.97;;;15.99;89.88
81822;BME280;71257;52.192;5.654;2023-08-06T08:54:18;100474.03;;;15.93;90.57
81822;BME280;71257;52.192;5.654;2023-08-06T08:56:45;100472.88;;;15.84;91.08
81822;BME280;71257;52.192;5.654;2023-08-06T08:59:11;100479.78;;;15.92;90.18
81822;BME280;71257;52.192;5.654;2023-08-06T09:01:37;100483.94;;;15.99;90.19
81822;BME280;71257;52.192;5.654;2023-08-06T09:04:05;100477.72;;;16.19;88.88
81822;BME280;71257;52.192;5.654;2023-08-06T09:06:33;100489.00;;;16.23;88.83
81822;BME280;71257;52.192;5.654;2023-08-06T09:09:08;100486.31;;;16.43;89.36
81822;BME280;71257;52.192;5.654;2023-08-06T09:11:39;100488.69;;;16.19;88.74
81822;BME280;71257;52.192;5.654;2023-08-06T09:14:06;100493.81;;;15.95;88.81
81822;BME280;71257;52.192;5.654;2023-08-06T09:16:35;100495.50;;;16.06;89.95
81822;BME280;71257;52.192;5.654;2023-08-06T09:19:08;100492.56;;;16.18;89.83
81822;BME280;71257;52.192;5.654;2023-08-06T09:21:36;100486.84;;;16.40;89.68
81822;BME280;71257;52.192;5.654;2023-08-06T09:24:08;100502.03;;;16.58;88.50
81822;BME280;71257;52.192;5.654;2023-08-06T09:26:34;100502.94;;;16.79;87.85
81822;BME280;71257;52.192;5.654;2023-08-06T09:29:00;100499.91;;;16.85;87.13
81822;BME280;71257;52.192;5.654;2023-08-06T09:31:32;100509.03;;;17.06;87.08
81822;BME280;71257;52.192;5.654;2023-08-06T09:34:00;100509.31;;;17.20;85.31
81822;BME280;71257;52.192;5.654;2023-08-06T09:36:27;100509.28;;;17.86;84.86
81822;BME280;71257;52.192;5.654;2023-08-06T09:38:52;100513.69;;;17.77;85.34
81822;BME280;71257;52.192;5.654;2023-08-06T09:41:32;100509.84;;;17.47;83.50
81822;BME280;71257;52.192;5.654;2023-08-06T09:43:58;100518.66;;;17.54;84.22
81822;BME280;71257;52.192;5.654;2023-08-06T09:46:24;100521.16;;;17.35;86.03
81822;BME280;71257;52.192;5.654;2023-08-06T09:48:50;100518.94;;;17.22;86.28
81822;BME280;71257;52.192;5.654;2023-08-06T09:51:16;100523.59;;;16.96;86.81
81822;BME280;71257;52.192;5.654;2023-08-06T09:53:42;100519.19;;;16.90;87.27
81822;BME280;71257;52.192;5.654;2023-08-06T09:56:08;100523.00;;;16.79;88.58
81822;BME280;71257;52.192;5.654;2023-08-06T09:58:35;100523.56;;;16.08;89.47
81822;BME280;71257;52.192;5.654;2023-08-06T10:01:02;100521.22;;;15.85;92.44
81822;BME280;71257;52.192;5.654;2023-08-06T10:03:28;100522.75;;;15.66;91.72
81822;BME280;71257;52.192;5.654;2023-08-06T10:05:55;100523.34;;;15.73;92.45
81822;BME280;71257;52.192;5.654;2023-08-06T10:08:21;100521.91;;;15.65;92.69
81822;BME280;71257;52.192;5.654;2023-08-06T10:10:47;100528.78;;;15.36;92.85
81822;BME280;71257;52.192;5.654;2023-08-06T10:13:13;100535.53;;;15.23;92.71
81822;BME280;71257;52.192;5.654;2023-08-06T10:15:57;100545.31;;;15.14;93.92
81822;BME280;71257;52.192;5.654;2023-08-06T10:18:22;100529.81;;;14.98;93.58
81822;BME280;71257;52.192;5.654;2023-08-06T10:20:48;100543.03;;;14.79;95.28
81822;BME280;71257;52.192;5.654;2023-08-06T10:23:14;100533.06;;;14.68;95.06
81822;BME280;71257;52.192;5.654;2023-08-06T10:25:41;100551.16;;;14.69;95.84
81822;BME280;71257;52.192;5.654;2023-08-06T10:28:09;100547.97;;;14.55;94.18
81822;BME280;71257;52.192;5.654;2023-08-06T10:30:41;100539.28;;;14.41;94.92
81822;BME280;71257;52.192;5.654;2023-08-06T10:33:07;100554.91;;;14.19;95.29
81822;BME280;71257;52.192;5.654;2023-08-06T10:35:42;100552.59;;;14.11;95.53
81822;BME280;71257;52.192;5.654;2023-08-06T10:40:50;100551.44;;;14.07;95.65
81822;BME280;71257;52.192;5.654;2023-08-06T10:43:36;100554.41;;;13.83;96.30
81822;BME280;71257;52.192;5.654;2023-08-06T10:46:10;100551.59;;;13.78;95.95
81822;BME280;71257;52.192;5.654;2023-08-06T10:48:38;100559.97;;;13.72;96.74
81822;BME280;71257;52.192;5.654;2023-08-06T10:51:08;100555.81;;;13.69;96.69
81822;BME280;71257;52.192;5.654;2023-08-06T10:53:34;100564.03;;;13.69;96.47
81822;BME280;71257;52.192;5.654;2023-08-06T10:56:00;100553.84;;;13.65;96.56
81822;BME280;71257;52.192;5.654;2023-08-06T10:58:31;100565.03;;;13.63;96.88
81822;BME280;71257;52.192;5.654;2023-08-06T11:00:56;100570.94;;;13.55;96.85
81822;BME280;71257;52.192;5.654;2023-08-06T11:03:22;100575.31;;;13.56;97.17
81822;BME280;71257;52.192;5.654;2023-08-06T11:05:49;100584.03;;;13.53;96.73
81822;BME280;71257;52.192;5.654;2023-08-06T11:08:24;100588.00;;;13.45;96.22
81822;BME280;71257;52.192;5.654;2023-08-06T11:10:50;100589.75;;;13.35;96.52
81822;BME280;71257;52.192;5.654;2023-08-06T11:13:17;100592.88;;;13.27;96.04
81822;BME280;71257;52.192;5.654;2023-08-06T11:15:44;100586.81;;;13.25;96.18
81822;BME280;71257;52.192;5.654;2023-08-06T11:18:10;100593.03;;;13.20;96.87
81822;BME280;71257;52.192;5.654;2023-08-06T11:20:36;100590.06;;;13.21;96.65
81822;BME280;71257;52.192;5.654;2023-08-06T11:23:02;100592.31;;;13.13;97.12
81822;BME280;71257;52.192;5.654;2023-08-06T11:25:28;100601.47;;;13.18;97.58
81822;BME280;71257;52.192;5.654;2023-08-06T11:27:54;100598.03;;;13.11;97.59
81822;BME280;71257;52.192;5.654;2023-08-06T11:30:20;100589.34;;;13.14;97.48
81822;BME280;71257;52.192;5.654;2023-08-06T11:32:47;100590.56;;;13.07;97.95
81822;BME280;71257;52.192;5.654;2023-08-06T11:35:13;100594.72;;;13.09;97.20
81822;BME280;71257;52.192;5.654;2023-08-06T11:37:43;100599.22;;;13.15;97.58
81822;BME280;71257;52.192;5.654;2023-08-06T11:40:09;100600.78;;;13.11;98.09
81822;BME280;71257;52.192;5.654;2023-08-06T11:42:36;100611.59;;;13.18;98.78
81822;BME280;71257;52.192;5.654;2023-08-06T11:45:03;100611.09;;;13.21;98.10
81822;BME280;71257;52.192;5.654;2023-08-06T11:47:29;100612.19;;;13.20;97.22
81822;BME280;71257;52.192;5.654;2023-08-06T11:49:55;100609.31;;;13.15;98.16
81822;BME280;71257;52.192;5.654;2023-08-06T11:55:02;100617.31;;;13.16;98.35
81822;BME280;71257;52.192;5.654;2023-08-06T11:57:30;100615.16;;;13.18;98.59
81822;BME280;71257;52.192;5.654;2023-08-06T12:00:01;100610.53;;;13.19;98.31
81822;BME280;71257;52.192;5.654;2023-08-06T12:02:31;100605.28;;;13.17;98.56
81822;BME280;71257;52.192;5.654;2023-08-06T12:05:02;100618.06;;;13.29;98.71
81822;BME280;71257;52.192;5.654;2023-08-06T12:07:30;100611.28;;;13.31;98.97
81822;BME280;71257;52.192;5.654;2023-08-06T12:09:56;100620.59;;;13.47;99.45
81822;BME280;71257;52.192;5.654;2023-08-06T12:12:23;100621.50;;;13.52;98.54
81822;BME280;71257;52.192;5.654;2023-08-06T12:14:48;100628.72;;;13.59;98.80
81822;BME280;71257;52.192;5.654;2023-08-06T12:17:14;100632.03;;;13.61;98.55
81822;BME280;71257;52.192;5.654;2023-08-06T12:19:39;100645.97;;;13.59;98.74
81822;BME280;71257;52.192;5.654;2023-08-06T12:22:04;100652.69;;;13.68;98.38
81822;BME280;71257;52.192;5.654;2023-08-06T12:24:30;100644.31;;;13.75;98.16
81822;BME280;71257;52.192;5.654;2023-08-06T12:26:57;100648.81;;;13.81;97.97
81822;BME280;71257;52.192;5.654;2023-08-06T12:29:24;100643.75;;;13.90;97.79
81822;BME280;71257;52.192;5.654;2023-08-06T12:31:50;100647.06;;;13.92;97.74
81822;BME280;71257;52.192;5.654;2023-08-06T12:34:15;100647.88;;;13.92;97.72
81822;BME280;71257;52.192;5.654;2023-08-06T12:36:41;100653.28;;;14.04;97.69
81822;BME280;71257;52.192;5.654;2023-08-06T12:39:06;100654.75;;;14.11;98.07
81822;BME280;71257;52.192;5.654;2023-08-06T12:41:31;100656.41;;;14.12;97.94
81822;BME280;71257;52.192;5.654;2023-08-06T12:43:57;100657.41;;;14.06;97.77
81822;BME280;71257;52.192;5.654;2023-08-06T12:46:22;100656.00;;;14.04;98.07
81822;BME280;71257;52.192;5.654;2023-08-06T12:48:47;100664.13;;;14.15;98.14
81822;BME280;71257;52.192;5.654;2023-08-06T12:51:13;100657.75;;;14.10;97.99